PROFILE

 METAR AND TAF INFORMATION
ADDS - METARS form results

(0810 UTC 19 August 2019)
http://aviationweather.gov/metar/data/
 
ENTC 190750Z VRB03KT 9999 FEW009 SCT060 BKN130 13/11 Q1000 NOSIG RMK WIND 2600FT 10010KT
ENTC 190720Z VRB03KT 9999 FEW009 SCT060 BKN130 13/12 Q1000 NOSIG RMK WIND 2600FT 10010KT
TAF COR ENTC 1906/2006 02008KT 9999 -RA FEW005 BKN040 TEMPO 1909/1918 RA TEMPO 1918/2006 28025KT 4000 RADZ BKN012 

 AIRPORT MAP

 RUNWAY INFORMATION
Runway 01 Runway length 7848 ft Runway width 148 ft
Runway elevation 25 ft Runway displaced threshold 0 ft Runway heading 13
Runway 19 Runway length 7848 ft Runway width 148 ft
Runway elevation 13 ft Runway displaced threshold 1286 ft Runway heading 193

 AIRPORT FREQUENCIES
Type APP Name APP Frequency 123.75 MHZ
Type ATIS Name ATIS Frequency 126.125 MHZ
Type TWR Name TWR Frequency 118.3 MHZ

 AIRPORT NEAR NAVIGATION AIDS
Type NDB Name Kobbe Frequency 283 KHZ
Type NDB Name Kvalsund Frequency 362 KHZ
Type NDB Name Lanes Frequency 268 KHZ
Type VOR-DME Name Tromso Frequency 113800 KHZ